Time;durP1;ratioP1;P1;durP2;ratioP2;P2;SDS_P1;SDS_P2;PMS_P1;PMS_P2;Temp;Humidity;BMP_temperature;BMP_pressure;BME280_temperature;BME280_humidity;BME280_pressure;Samples;Min_cycle;Max_cycle;Signal;HPM_P1;HPM_P2
2022/07/01 00:02:01;;;;;;;6.55;6.15;;;;;;;21.03;83.65;100457.45;1757427;81;21101;-83
2022/07/01 00:04:28;;;;;;;6.55;6.10;;;;;;;21.01;83.89;100458.25;1764389;81;21033;-75
2022/07/01 00:06:57;;;;;;;6.55;6.15;;;;;;;21.02;84.34;100458.55;1760435;81;21112;-78
2022/07/01 00:09:23;;;;;;;6.28;5.72;;;;;;;21.02;83.79;100463.96;1764266;81;21109;-81
2022/07/01 00:11:50;;;;;;;;;;;;;;;20.95;83.45;100460.08;1744200;81;21069;-76
2022/07/01 00:14:16;;;;;;;6.08;5.78;;;;;;;20.92;85.15;100457.06;1694378;83;20163;-80
2022/07/01 00:16:42;;;;;;;6.00;5.65;;;;;;;20.91;85.95;100462.21;1706408;83;21117;-73
2022/07/01 00:19:09;;;;;;;7.55;7.03;;;;;;;20.92;84.52;100461.13;1702849;83;21033;-77
2022/07/01 00:21:36;;;;;;;7.62;7.15;;;;;;;20.84;84.43;100457.52;1698605;83;21619;-79
2022/07/01 00:24:02;;;;;;;7.58;6.75;;;;;;;20.65;84.48;100446.20;1702231;83;20999;-76
2022/07/01 00:26:29;;;;;;;6.30;5.78;;;;;;;20.60;84.73;100463.19;1695270;83;21105;-81
2022/07/01 00:28:55;;;;;;;6.55;6.03;;;;;;;20.54;86.40;100458.75;1685410;83;21010;-79
2022/07/01 00:31:21;;;;;;;5.92;5.62;;;;;;;20.59;86.85;100460.18;1690958;83;21044;-77
2022/07/01 00:33:48;;;;;;;6.15;5.85;;;;;;;20.70;86.86;100457.06;1702477;82;21086;-75
2022/07/01 00:36:14;;;;;;;6.50;6.10;;;;;;;20.69;85.42;100458.97;1694152;83;21586;-80
2022/07/01 00:38:40;;;;;;;7.20;6.60;;;;;;;20.59;85.50;100454.77;1684837;83;21123;-80
2022/07/01 00:41:06;;;;;;;6.97;6.47;;;;;;;20.50;85.90;100456.27;1686250;83;21089;-78
2022/07/01 00:43:38;;;;;;;6.55;6.05;;;;;;;20.46;87.31;100459.20;1685496;83;21051;-82
2022/07/01 00:46:06;;;;;;;5.83;5.45;;;;;;;20.50;87.88;100455.73;1688778;83;21040;-81
2022/07/01 00:48:34;;;;;;;6.65;6.17;;;;;;;20.58;87.76;100451.76;1674511;83;21022;-78
2022/07/01 00:51:03;;;;;;;6.83;6.33;;;;;;;20.64;87.02;100450.77;1680686;83;21094;-76
2022/07/01 00:53:29;;;;;;;6.72;6.15;;;;;;;20.66;86.76;100447.27;1684627;83;21156;-73
2022/07/01 00:55:57;;;;;;;6.28;5.67;;;;;;;20.67;86.81;100452.98;1676589;83;21526;-79
2022/07/01 00:58:28;;;;;;;6.40;6.10;;;;;;;20.74;87.55;100444.69;1700936;83;21058;-75
2022/07/01 01:00:59;;;;;;;6.17;5.67;;;;;;;20.83;86.12;100446.39;1689898;83;21104;-78
2022/07/01 01:03:26;;;;;;;8.83;6.83;;;;;;;20.78;85.28;100447.16;1686337;83;21120;-72
2022/07/01 01:05:55;;;;;;;6.00;5.45;;;;;;;20.69;85.30;100450.84;1682371;83;21559;-73
2022/07/01 01:08:21;;;;;;;6.45;5.95;;;;;;;20.59;86.10;100450.70;1679020;83;20987;-74
2022/07/01 01:10:48;;;;;;;6.90;6.42;;;;;;;20.59;88.24;100446.64;1689974;83;21127;-79
2022/07/01 01:13:16;;;;;;;5.70;5.35;;;;;;;20.65;87.07;100452.42;1694121;83;21076;-76
2022/07/01 01:15:42;;;;;;;7.42;6.92;;;;;;;20.65;87.21;100448.91;1696491;83;20983;-75
2022/07/01 01:18:10;;;;;;;6.62;6.20;;;;;;;20.68;87.57;100453.80;1709841;83;21034;-79
2022/07/01 01:20:37;;;;;;;;;;;;;;;20.72;86.76;100450.34;1713558;83;21030;-79
2022/07/01 01:23:04;;;;;;;7.08;6.40;;;;;;;20.74;86.18;100451.45;1691436;83;20301;-83
2022/07/01 01:25:34;;;;;;;6.58;6.12;;;;;;;20.65;86.04;100451.07;1672526;84;21070;-72
2022/07/01 01:28:02;;;;;;;6.97;6.45;;;;;;;20.59;86.02;100447.99;1651376;85;21033;-76
2022/07/01 01:30:29;;;;;;;6.85;6.28;;;;;;;20.51;85.86;100446.55;1669338;84;21494;-78
2022/07/01 01:32:55;;;;;;;7.00;6.40;;;;;;;20.45;86.13;100450.78;1634858;85;21084;-75
2022/07/01 01:35:23;;;;;;;5.90;5.60;;;;;;;20.42;86.67;100449.41;1648702;85;21117;-76
2022/07/01 01:37:49;;;;;;;7.78;7.00;;;;;;;20.45;86.88;100448.88;1676448;84;21058;-84
2022/07/01 01:40:15;;;;;;;;;;;;;;;20.47;87.50;100456.22;1679717;84;21072;-77
2022/07/01 01:42:46;;;;;;;6.70;5.95;;;;;;;20.51;87.35;100459.25;1677090;84;20151;-73
2022/07/01 01:45:14;;;;;;;6.47;5.92;;;;;;;20.48;87.69;100463.83;1670918;84;21061;-74
2022/07/01 01:47:40;;;;;;;7.17;6.67;;;;;;;20.48;87.68;100464.64;1686346;84;21107;-80
2022/07/01 01:50:09;;;;;;;7.05;6.45;;;;;;;20.48;87.84;100464.64;1676788;84;21064;-80
2022/07/01 01:52:38;;;;;;;7.22;6.72;;;;;;;20.49;87.41;100466.80;1671873;84;21021;-83
2022/07/01 01:55:06;;;;;;;6.78;6.28;;;;;;;20.47;87.24;100464.34;1692765;83;21181;-75
2022/07/01 01:57:32;;;;;;;6.28;5.90;;;;;;;20.47;87.52;100467.59;1703114;83;21026;-82
2022/07/01 02:00:00;;;;;;;6.58;6.08;;;;;;;20.45;87.53;100468.38;1677235;84;21583;-80
2022/07/01 02:02:30;;;;;;;7.33;6.15;;;;;;;20.45;88.11;100461.06;1676287;84;21037;-72
2022/07/01 02:04:56;;;;;;;6.90;6.42;;;;;;;20.47;88.54;100463.53;1670027;84;21165;-75
2022/07/01 02:07:22;;;;;;;6.53;6.12;;;;;;;20.50;88.54;100465.75;1675432;84;21037;-77
2022/07/01 02:09:48;;;;;;;6.03;5.72;;;;;;;20.51;88.19;100460.59;1675481;84;21533;-76
2022/07/01 02:12:16;;;;;;;6.70;6.20;;;;;;;20.51;88.32;100465.50;1676874;84;21527;-75
2022/07/01 02:14:43;;;;;;;8.00;7.30;;;;;;;20.54;88.21;100478.52;1673001;84;21142;-75
2022/07/01 02:17:09;;;;;;;9.38;8.50;;;;;;;20.50;87.78;100481.45;1670843;84;21171;-75
2022/07/01 02:19:35;;;;;;;;;;;;;;;20.38;87.91;100477.52;1677072;84;21116;-73
2022/07/01 02:22:01;;;;;;;8.97;8.17;;;;;;;20.37;88.42;100483.98;1675126;84;20433;-72
2022/07/01 02:24:28;;;;;;;9.60;8.98;;;;;;;20.40;88.29;100481.33;1678383;84;21103;-79
2022/07/01 02:26:54;;;;;;;9.40;8.60;;;;;;;20.43;87.47;100487.58;1667503;84;21022;-74
2022/07/01 02:29:20;;;;;;;;;;;;;;;20.36;87.57;100486.93;1679265;84;21067;-77
2022/07/01 02:31:46;;;;;;;9.70;8.78;;;;;;;20.27;88.44;100487.91;1677372;84;20170;-78
2022/07/01 02:34:12;;;;;;;;;;;;;;;20.17;88.78;100493.16;1675263;84;21082;-80
2022/07/01 02:36:38;;;;;;;9.15;8.53;;;;;;;20.16;89.46;100491.54;1676684;84;20165;-78
2022/07/01 02:39:04;;;;;;;8.53;7.65;;;;;;;20.10;90.22;100485.74;1674514;84;21560;-77
2022/07/01 02:41:31;;;;;;;9.33;8.00;;;;;;;20.13;90.39;100478.49;1670385;84;21087;-75
2022/07/01 02:43:57;;;;;;;9.35;8.50;;;;;;;20.23;90.70;100481.36;1649109;84;21614;-74
2022/07/01 02:46:23;;;;;;;;;;;;;;;20.36;90.26;100482.88;1673273;84;21023;-72
2022/07/01 02:48:49;;;;;;;8.90;8.23;;;;;;;20.51;89.77;100489.03;1675072;84;20687;-76
2022/07/01 02:51:16;;;;;;;9.60;8.78;;;;;;;20.57;88.99;100486.70;1676945;84;21037;-81
2022/07/01 02:53:41;;;;;;;;;;;;;;;20.69;88.75;100487.41;1680881;84;21071;-82
2022/07/01 02:56:08;;;;;;;8.23;7.62;;;;;;;20.93;88.96;100489.87;1673730;84;20128;-81
2022/07/01 02:58:34;;;;;;;8.93;7.10;;;;;;;21.24;87.61;100491.55;1656313;85;21126;-75
2022/07/01 03:01:00;;;;;;;7.42;6.78;;;;;;;21.51;85.57;100502.41;1672573;85;21129;-76
2022/07/01 03:03:27;;;;;;;13.25;7.58;;;;;;;21.84;84.32;100498.63;1680114;84;21453;-75
2022/07/01 03:05:53;;;;;;;8.08;7.53;;;;;;;22.32;82.61;100498.70;1675648;84;21029;-77
2022/07/01 03:08:19;;;;;;;8.05;7.45;;;;;;;22.64;80.22;100499.14;1674467;85;21046;-83
2022/07/01 03:10:45;;;;;;;7.62;7.12;;;;;;;22.71;78.81;100492.93;1680012;84;21004;-81
2022/07/01 03:13:12;;;;;;;8.08;7.50;;;;;;;22.68;78.42;100494.28;1683295;84;21136;-75
2022/07/01 03:15:38;;;;;;;7.55;7.10;;;;;;;22.57;78.39;100494.52;1704092;83;21138;-74
2022/07/01 03:18:04;;;;;;;7.45;6.85;;;;;;;22.43;78.76;100494.96;1699440;83;21139;-81
2022/07/01 03:20:31;;;;;;;6.70;6.10;;;;;;;22.29;79.67;100495.98;1682906;84;21215;-76
2022/07/01 03:22:57;;;;;;;8.05;6.53;;;;;;;22.53;80.73;100493.67;1695965;82;21110;-81
2022/07/01 03:25:23;;;;;;;7.35;6.65;;;;;;;23.11;78.92;100493.65;1664045;84;21039;-81
2022/07/01 03:27:49;;;;;;;7.40;6.55;;;;;;;23.80;76.24;100494.84;1658178;85;21067;-75
2022/07/01 03:30:17;;;;;;;7.08;6.25;;;;;;;24.54;73.17;100492.53;1672899;84;21160;-77
2022/07/01 03:32:45;;;;;;;6.12;5.62;;;;;;;25.29;69.31;100488.92;1706140;82;21073;-82
2022/07/01 03:37:57;;;;;;;5.83;5.35;;;;;;;25.96;63.89;100493.34;1683058;83;21091;-81
2022/07/01 03:40:24;;;;;;;5.72;5.35;;;;;;;26.12;63.50;100489.89;1693728;83;21622;-77
2022/07/01 03:42:50;;;;;;;5.33;4.80;;;;;;;26.25;62.42;100491.94;1672308;84;21072;-79
2022/07/01 03:45:17;;;;;;;5.15;4.85;;;;;;;26.47;61.37;100493.36;1691925;83;21030;-82
2022/07/01 03:47:48;;;;;;;5.10;4.87;;;;;;;26.74;60.94;100488.11;1694012;82;21041;-84
2022/07/01 03:50:16;;;;;;;5.78;5.30;;;;;;;26.99;59.70;100488.34;1693326;83;21006;-84
2022/07/01 03:52:43;;;;;;;6.35;5.90;;;;;;;27.06;59.13;100494.00;1703108;82;21066;-82
2022/07/01 03:55:10;;;;;;;5.33;4.95;;;;;;;26.81;59.63;100491.87;1679427;83;21084;-77
2022/07/01 03:57:37;;;;;;;6.15;5.60;;;;;;;26.48;60.89;100490.87;1697271;83;21084;-75
2022/07/01 04:00:06;;;;;;;5.85;5.30;;;;;;;26.52;60.59;100492.75;1695526;83;21414;-73
2022/07/01 04:02:33;;;;;;;5.70;5.25;;;;;;;26.81;60.10;100493.23;1680070;83;21045;-76
2022/07/01 04:04:59;;;;;;;5.12;4.65;;;;;;;27.18;57.26;100484.23;1682096;83;20999;-76
2022/07/01 04:07:26;;;;;;;5.92;5.53;;;;;;;27.57;55.80;100491.31;1680895;83;21045;-75
2022/07/01 04:09:53;;;;;;;5.20;4.78;;;;;;;27.79;54.92;100492.61;1674977;83;21576;-77
2022/07/01 04:12:19;;;;;;;4.15;3.95;;;;;;;27.61;55.07;100488.80;1674293;83;21010;-75
2022/07/01 04:14:46;;;;;;;3.40;3.30;;;;;;;27.22;56.09;100489.10;1657169;83;21002;-77
2022/07/01 04:17:12;;;;;;;5.05;4.75;;;;;;;26.82;56.77;100494.04;1681412;83;21053;-76
2022/07/01 04:19:38;;;;;;;3.83;3.62;;;;;;;26.44;58.50;100498.84;1690262;83;21058;-77
2022/07/01 04:24:49;;;;;;;5.55;4.20;;;;;;;26.09;59.79;100504.13;1677087;84;21027;-81
2022/07/01 04:27:15;;;;;;;4.85;4.33;;;;;;;26.29;59.57;100503.91;1677228;84;21050;-76
2022/07/01 04:29:41;;;;;;;4.97;4.67;;;;;;;26.59;58.64;100496.48;1682502;84;21042;-73
2022/07/01 04:32:08;;;;;;;4.97;4.70;;;;;;;26.70;57.66;100496.64;1671801;84;21051;-76
2022/07/01 04:34:34;;;;;;;6.97;3.90;;;;;;;26.76;57.69;100505.59;1699735;82;21085;-75
2022/07/01 04:37:03;;;;;;;4.78;4.37;;;;;;;27.03;58.15;100498.14;1721702;82;21098;-79
2022/07/01 04:39:29;;;;;;;4.30;4.10;;;;;;;27.70;56.68;100504.80;1721809;82;21049;-78
2022/07/01 04:42:01;;;;;;;4.17;3.58;;;;;;;28.43;54.21;100494.20;1717622;82;21033;-82
2022/07/01 04:44:31;;;;;;;3.50;3.30;;;;;;;29.11;51.49;100493.08;1713717;82;21050;-77
2022/07/01 04:46:59;;;;;;;3.62;3.40;;;;;;;29.64;48.87;100488.83;1714234;83;21109;-78
2022/07/01 04:49:26;;;;;;;4.00;3.12;;;;;;;29.86;47.50;100490.20;1719279;82;21116;-81
2022/07/01 04:51:55;;;;;;;2.65;2.50;;;;;;;29.99;47.68;100496.75;1720022;82;21050;-75
2022/07/01 04:54:22;;;;;;;2.20;2.20;;;;;;;30.19;45.96;100494.57;1721581;83;21023;-71
2022/07/01 04:56:48;;;;;;;3.60;2.90;;;;;;;30.03;45.56;100494.19;1756412;80;21053;-77
2022/07/01 04:59:16;;;;;;;2.90;2.67;;;;;;;29.87;45.48;100494.56;1750732;80;21084;-77
2022/07/01 05:01:44;;;;;;;2.80;2.20;;;;;;;29.88;45.58;100496.20;1726170;82;21105;-81
2022/07/01 05:04:12;;;;;;;3.75;2.50;;;;;;;30.00;45.07;100486.56;1709202;82;21180;-75
2022/07/01 05:06:39;;;;;;;2.45;2.25;;;;;;;29.94;44.92;100490.00;1721182;82;21119;-79
2022/07/01 05:09:06;;;;;;;4.25;3.37;;;;;;;29.66;45.11;100487.95;1720766;82;21199;-76
2022/07/01 05:11:32;;;;;;;4.53;2.22;;;;;;;29.24;46.57;100492.81;1719800;82;21149;-78
2022/07/01 05:14:00;;;;;;;2.77;2.55;;;;;;;29.03;47.39;100489.13;1690815;82;21017;-73
2022/07/01 05:16:27;;;;;;;2.52;2.42;;;;;;;29.17;47.78;100492.43;1712522;82;21113;-74
2022/07/01 05:21:56;;;;;;;2.17;1.95;;;;;;;29.56;45.90;100489.59;1708246;82;21081;-74
2022/07/01 05:24:24;;;;;;;2.52;2.33;;;;;;;29.33;45.76;100487.38;1644647;85;21041;-77
2022/07/01 05:26:52;;;;;;;6.37;3.17;;;;;;;29.11;46.37;100495.25;1690407;82;21030;-75
2022/07/01 05:29:18;;;;;;;6.17;2.72;;;;;;;28.93;47.52;100498.41;1709032;82;21015;-77
2022/07/01 05:31:45;;;;;;;3.85;2.60;;;;;;;28.92;47.04;100503.62;1706238;82;21034;-75
2022/07/01 05:34:12;;;;;;;2.75;2.55;;;;;;;28.87;47.24;100501.55;1713689;82;21057;-76
2022/07/01 05:36:38;;;;;;;3.70;3.40;;;;;;;28.66;47.83;100505.30;1716260;82;21261;-78
2022/07/01 05:39:06;;;;;;;4.62;3.05;;;;;;;28.30;48.77;100509.52;1715155;82;21533;-72
2022/07/01 05:41:34;;;;;;;5.25;2.87;;;;;;;27.97;49.88;100514.23;1708190;82;21124;-72
2022/07/01 05:44:01;;;;;;;6.47;3.70;;;;;;;27.88;50.78;100517.40;1710048;82;21133;-80
2022/07/01 05:46:27;;;;;;;3.20;3.00;;;;;;;27.89;50.16;100513.00;1715279;82;21206;-79
2022/07/01 05:48:53;;;;;;;3.75;3.50;;;;;;;28.05;50.42;100515.46;1710566;82;21185;-81
2022/07/01 05:51:20;;;;;;;3.08;2.98;;;;;;;28.25;48.71;100507.44;1711223;82;21027;-70
2022/07/01 05:53:47;;;;;;;3.52;3.22;;;;;;;28.33;48.85;100505.34;1671096;84;21055;-73
2022/07/01 05:56:14;;;;;;;4.65;3.30;;;;;;;28.40;48.81;100500.85;1702393;82;21097;-75
2022/07/01 05:58:40;;;;;;;3.50;3.20;;;;;;;28.34;48.88;100507.80;1716337;82;21589;-73
2022/07/01 06:01:06;;;;;;;18.45;3.90;;;;;;;28.43;48.83;100502.42;1695611;83;21024;-73
2022/07/01 06:03:33;;;;;;;3.77;3.27;;;;;;;28.61;49.63;100500.71;1748812;81;21090;-72
2022/07/01 06:05:59;;;;;;;4.33;3.98;;;;;;;28.96;48.12;100503.03;1748494;81;21207;-76
2022/07/01 06:08:25;;;;;;;5.00;3.70;;;;;;;29.22;47.17;100497.81;1749108;82;21174;-75
2022/07/01 06:10:51;;;;;;;4.22;3.80;;;;;;;29.15;46.90;100496.84;1751024;81;21094;-73
2022/07/01 06:13:18;;;;;;;3.90;3.50;;;;;;;29.06;47.43;100497.30;1750347;81;21022;-70
2022/07/01 06:15:44;;;;;;;3.70;3.40;;;;;;;29.00;48.02;100497.17;1737914;81;21526;-71
2022/07/01 06:18:11;;;;;;;4.58;4.08;;;;;;;29.05;48.11;100489.63;1748467;81;21624;-73
2022/07/01 06:20:37;;;;;;;4.17;3.85;;;;;;;29.16;47.94;100494.91;1752824;81;21017;-73
2022/07/01 06:23:03;;;;;;;4.40;3.70;;;;;;;29.35;47.58;100492.83;1747369;81;21133;-74
2022/07/01 06:25:30;;;;;;;4.10;3.65;;;;;;;29.42;46.75;100493.75;1752175;81;20973;-73
2022/07/01 06:27:56;;;;;;;4.28;4.05;;;;;;;29.54;47.27;100494.59;1751453;81;21105;-68
2022/07/01 06:30:22;;;;;;;3.85;3.55;;;;;;;29.69;46.90;100485.39;1751384;81;21041;-72
2022/07/01 06:32:49;;;;;;;4.15;3.85;;;;;;;29.79;46.31;100481.59;1750553;82;21052;-75
2022/07/01 06:35:16;;;;;;;3.58;3.27;;;;;;;29.97;45.65;100482.52;1717372;82;21458;-71
2022/07/01 06:37:43;;;;;;;3.52;3.22;;;;;;;30.00;45.64;100475.56;1752111;81;21635;-73
2022/07/01 06:40:12;;;;;;;3.55;3.30;;;;;;;30.04;45.19;100475.17;1749786;82;21416;-75
2022/07/01 06:42:38;;;;;;;6.28;4.00;;;;;;;30.09;44.76;100479.97;1744847;82;21018;-73
2022/07/01 06:45:06;;;;;;;2.33;2.22;;;;;;;30.20;45.35;100475.02;1735385;81;21158;-72
2022/07/01 06:47:32;;;;;;;2.83;2.27;;;;;;;30.41;44.86;100465.66;1712219;82;21030;-73
2022/07/01 06:50:00;;;;;;;3.75;2.58;;;;;;;30.52;43.99;100468.13;1721734;82;21042;-74
2022/07/01 06:52:26;;;;;;;3.10;2.60;;;;;;;30.57;44.12;100465.20;1714726;82;21615;-78
2022/07/01 06:54:52;;;;;;;2.40;2.17;;;;;;;30.56;43.74;100464.97;1717641;82;21162;-78
2022/07/01 06:57:18;;;;;;;4.30;1.95;;;;;;;30.66;43.61;100461.33;1719360;82;21099;-74
2022/07/01 06:59:44;;;;;;;2.15;1.60;;;;;;;30.74;43.28;100465.80;1708595;83;21037;-75
2022/07/01 07:02:10;;;;;;;2.80;2.37;;;;;;;30.70;42.95;100464.83;1740226;82;21037;-74
2022/07/01 07:04:37;;;;;;;2.33;2.22;;;;;;;30.55;44.17;100462.77;1749539;81;21077;-76
2022/07/01 07:07:04;;;;;;;1.98;1.87;;;;;;;30.61;43.29;100462.05;1754818;81;21098;-79
2022/07/01 07:09:30;;;;;;;1.85;1.65;;;;;;;30.41;43.43;100468.40;1747388;81;21171;-72
2022/07/01 07:11:56;;;;;;;3.20;1.62;;;;;;;30.27;43.05;100464.92;1741273;82;20991;-76
2022/07/01 07:14:22;;;;;;;1.52;1.42;;;;;;;30.18;44.06;100463.53;1708317;83;21122;-72
2022/07/01 07:16:51;;;;;;;1.85;1.75;;;;;;;30.27;42.73;100461.63;1708584;83;21212;-76
2022/07/01 07:19:17;;;;;;;1.82;1.75;;;;;;;30.32;43.24;100459.85;1716594;82;21080;-71
2022/07/01 07:21:43;;;;;;;2.70;2.47;;;;;;;30.40;42.48;100457.17;1654823;85;21351;-74
2022/07/01 07:24:09;;;;;;;3.40;1.57;;;;;;;30.50;42.22;100471.19;1649553;85;21598;-79
2022/07/01 07:26:35;;;;;;;1.77;1.67;;;;;;;30.50;42.49;100466.23;1694651;83;21138;-77
2022/07/01 07:29:03;;;;;;;1.98;1.87;;;;;;;30.38;41.89;100471.78;1702939;83;21043;-77
2022/07/01 07:31:29;;;;;;;2.17;1.98;;;;;;;30.23;42.39;100479.05;1681060;83;21541;-76
2022/07/01 07:33:55;;;;;;;2.67;1.55;;;;;;;30.04;44.21;100459.49;1682935;83;21086;-78
2022/07/01 07:36:21;;;;;;;1.57;1.47;;;;;;;30.09;43.79;100468.98;1680100;83;21494;-78
2022/07/01 07:38:49;;;;;;;2.42;2.30;;;;;;;30.18;43.24;100460.78;1687826;83;21047;-77
2022/07/01 07:41:16;;;;;;;2.05;1.60;;;;;;;30.17;43.26;100467.97;1676120;83;21095;-78
2022/07/01 07:43:41;;;;;;;1.90;1.77;;;;;;;29.93;42.58;100463.64;1676507;83;21087;-80
2022/07/01 07:46:08;;;;;;;2.30;2.15;;;;;;;29.66;43.25;100461.86;1690572;81;20974;-82
2022/07/01 07:48:34;;;;;;;1.40;1.40;;;;;;;29.30;43.82;100455.31;1690275;83;21093;-77
2022/07/01 07:51:00;;;;;;;3.15;1.67;;;;;;;29.19;44.36;100455.30;1682448;83;21105;-77
2022/07/01 07:53:26;;;;;;;2.90;2.70;;;;;;;29.14;44.33;100455.45;1680001;83;20979;-73
2022/07/01 07:55:53;;;;;;;4.37;3.42;;;;;;;29.02;46.11;100455.14;1690575;83;21648;-76
2022/07/01 07:58:19;;;;;;;3.05;2.60;;;;;;;28.92;45.85;100450.70;1676523;85;21102;-82
2022/07/01 08:00:46;;;;;;;2.58;2.47;;;;;;;28.84;46.93;100452.25;1671883;85;21046;-76
2022/07/01 08:03:12;;;;;;;2.80;2.67;;;;;;;28.80;46.78;100447.13;1682743;85;21077;-80
2022/07/01 08:05:38;;;;;;;2.40;2.30;;;;;;;28.78;47.65;100441.11;1677187;85;21101;-77
2022/07/01 08:08:05;;;;;;;2.98;2.77;;;;;;;28.77;47.02;100451.85;1686446;85;21035;-82
2022/07/01 08:10:33;;;;;;;2.77;2.50;;;;;;;28.74;45.50;100445.59;1671477;84;21090;-83
2022/07/01 08:13:04;;;;;;;3.05;2.40;;;;;;;28.78;45.13;100447.17;1683639;83;21543;-83
2022/07/01 08:15:29;;;;;;;4.47;2.80;;;;;;;28.81;44.48;100447.94;1690020;83;21502;-82
2022/07/01 08:17:56;;;;;;;2.90;2.70;;;;;;;28.78;45.25;100447.17;1687652;83;21076;-79
2022/07/01 08:20:23;;;;;;;3.27;3.00;;;;;;;28.66;45.94;100442.22;1689101;83;21033;-77
2022/07/01 08:22:49;;;;;;;3.52;2.60;;;;;;;28.63;46.11;100445.03;1682999;83;21133;-74
2022/07/01 08:25:16;;;;;;;2.83;2.50;;;;;;;28.65;45.55;100436.47;1684236;84;22105;-75
2022/07/01 08:27:43;;;;;;;3.35;2.95;;;;;;;28.66;46.00;100437.54;1682401;84;21094;-83
2022/07/01 08:30:11;;;;;;;2.27;2.10;;;;;;;28.68;44.07;100454.50;1679871;85;21038;-77
2022/07/01 08:32:37;;;;;;;4.70;3.20;;;;;;;28.71;44.67;100437.44;1676607;84;21088;-77
2022/07/01 08:35:04;;;;;;;3.08;2.77;;;;;;;28.80;45.15;100444.92;1713201;83;21014;-80
2022/07/01 08:37:30;;;;;;;2.85;2.62;;;;;;;28.87;44.82;100442.58;1706254;83;21314;-84
2022/07/01 08:39:59;;;;;;;2.45;2.40;;;;;;;28.85;43.93;100454.42;1711632;83;21112;-84
2022/07/01 08:42:25;;;;;;;4.12;2.50;;;;;;;28.68;44.54;100453.13;1707880;83;21138;-78
2022/07/01 08:44:52;;;;;;;2.85;2.65;;;;;;;28.60;45.48;100443.45;1713626;82;21073;-77
2022/07/01 08:47:18;;;;;;;2.72;2.55;;;;;;;28.68;45.91;100446.27;1717986;83;21058;-81
2022/07/01 08:49:44;;;;;;;2.65;2.45;;;;;;;28.75;46.16;100448.61;1715204;83;21094;-77
2022/07/01 08:52:11;;;;;;;3.10;2.77;;;;;;;28.67;44.76;100465.23;1714114;83;21093;-78
2022/07/01 08:54:39;;;;;;;3.10;2.60;;;;;;;28.51;44.64;100451.55;1713518;82;21542;-80
2022/07/01 08:57:06;;;;;;;4.65;1.90;;;;;;;28.31;45.46;100444.01;1718545;82;21062;-80
2022/07/01 08:59:33;;;;;;;1.65;1.65;;;;;;;28.25;45.26;100445.20;1709278;82;21599;-83
2022/07/01 09:02:04;;;;;;;3.95;2.37;;;;;;;28.26;45.72;100446.05;1715600;82;21104;-78
2022/07/01 09:04:31;;;;;;;3.05;2.52;;;;;;;28.34;44.81;100452.17;1717852;82;21070;-77
2022/07/01 09:07:08;;;;;;;1.98;1.87;;;;;;;28.38;44.59;100453.17;1710638;82;21026;-83
2022/07/01 09:09:39;;;;;;;;;;;;;;;28.43;44.36;100446.23;1721426;83;21002;-82
2022/07/01 09:12:07;;;;;;;3.40;2.33;;;;;;;28.49;44.14;100446.94;1713920;79;20273;-80
2022/07/01 09:14:35;;;;;;;6.15;2.47;;;;;;;28.51;43.92;100450.98;1717424;83;21513;-79
2022/07/01 09:17:06;;;;;;;3.10;2.72;;;;;;;28.59;43.75;100441.25;1708974;82;21022;-82
2022/07/01 09:19:36;;;;;;;4.70;2.05;;;;;;;28.66;43.51;100444.97;1717917;83;21129;-79
2022/07/01 09:22:04;;;;;;;1.95;1.95;;;;;;;28.61;42.98;100440.95;1716270;82;21034;-80
2022/07/01 09:24:41;;;;;;;4.22;1.80;;;;;;;28.53;43.08;100442.48;1718626;83;21145;-82
2022/07/01 09:27:16;;;;;;;1.98;1.87;;;;;;;28.49;43.29;100446.37;1716480;82;21066;-80
2022/07/01 09:29:47;;;;;;;2.70;2.60;;;;;;;28.48;43.43;100442.02;1714274;82;21521;-76
2022/07/01 09:32:18;;;;;;;2.02;1.75;;;;;;;28.45;43.44;100430.28;1714265;83;21038;-77
2022/07/01 09:34:48;;;;;;;2.75;1.70;;;;;;;28.40;43.97;100441.34;1698470;81;21529;-75
2022/07/01 09:37:21;;;;;;;2.27;2.17;;;;;;;28.28;43.59;100430.10;1689384;85;21037;-78
2022/07/01 09:39:56;;;;;;;1.95;1.67;;;;;;;28.25;43.28;100429.33;1691051;85;21092;-77
2022/07/01 09:42:25;;;;;;;4.87;2.30;;;;;;;28.25;42.86;100430.13;1690278;85;21012;-79
2022/07/01 09:45:05;;;;;;;3.80;1.82;;;;;;;28.31;43.40;100428.10;1691519;83;21005;-75
2022/07/01 09:47:35;;;;;;;5.42;1.37;;;;;;;28.28;42.43;100439.69;1689304;85;21545;-72
2022/07/01 09:50:04;;;;;;;2.65;1.37;;;;;;;28.21;42.66;100434.61;1689948;85;21047;-76
2022/07/01 09:52:33;;;;;;;1.40;1.37;;;;;;;28.17;42.54;100441.81;1690792;85;21501;-74
2022/07/01 09:54:59;;;;;;;3.77;0.85;;;;;;;28.10;42.73;100436.72;1690451;84;21489;-75
2022/07/01 09:57:26;;;;;;;1.52;1.35;;;;;;;28.07;42.71;100438.72;1684697;83;21662;-75
2022/07/01 09:59:52;;;;;;;2.12;0.80;;;;;;;28.08;42.80;100433.48;1685339;83;21004;-75
2022/07/01 10:02:21;;;;;;;1.30;0.85;;;;;;;28.12;42.35;100430.95;1694145;83;21046;-75
2022/07/01 10:04:55;;;;;;;4.08;1.50;;;;;;;28.04;42.21;100446.17;1693512;83;21144;-74
2022/07/01 10:08:12;;;;;;;2.70;0.53;;;;;;;28.06;41.91;100446.67;1696395;83;21113;-77
2022/07/01 10:11:17;;;;;;;1.87;1.47;;;;;;;28.03;41.60;100426.75;1683998;83;21527;-73
2022/07/01 10:13:44;;;;;;;2.25;1.42;;;;;;;28.06;41.50;100439.02;1690207;83;21078;-76
2022/07/01 10:16:14;;;;;;;4.95;0.93;;;;;;;28.09;41.30;100431.57;1694325;83;21062;-79
2022/07/01 10:18:40;;;;;;;0.90;0.65;;;;;;;28.11;41.10;100421.92;1692474;83;21016;-76
2022/07/01 10:21:06;;;;;;;0.65;0.65;;;;;;;28.15;41.11;100428.41;1684379;83;21093;-75
2022/07/01 10:23:43;;;;;;;2.55;0.80;;;;;;;28.20;40.81;100418.46;1673166;81;21049;-77
2022/07/01 10:26:13;;;;;;;0.53;0.50;;;;;;;28.21;40.60;100418.73;1633565;86;20982;-77
2022/07/01 10:28:47;;;;;;;3.83;0.82;;;;;;;28.19;40.38;100419.59;1652506;85;21573;-77
2022/07/01 10:31:16;;;;;;;6.47;0.62;;;;;;;28.15;40.13;100433.09;1666779;84;21089;-80
2022/07/01 10:33:56;;;;;;;3.83;0.62;;;;;;;28.13;40.26;100422.99;1660057;85;21074;-77
2022/07/01 10:36:33;;;;;;;3.15;0.85;;;;;;;28.13;40.42;100424.36;1668357;84;21522;-74
2022/07/01 10:39:10;;;;;;;0.30;0.30;;;;;;;28.10;40.02;100429.87;1670456;84;21211;-77
2022/07/01 10:41:58;;;;;;;1.95;0.40;;;;;;;28.08;40.16;100423.89;1686429;84;21254;-77
2022/07/01 10:44:27;;;;;;;0.50;0.40;;;;;;;28.06;40.01;100428.86;1691009;84;21095;-72
2022/07/01 10:47:06;;;;;;;1.37;0.68;;;;;;;28.04;40.02;100417.40;1666186;84;21059;-83
2022/07/01 10:49:43;;;;;;;4.87;0.60;;;;;;;28.05;40.27;100405.88;1667636;84;21747;-74
2022/07/01 10:52:15;;;;;;;1.45;0.30;;;;;;;28.06;39.79;100412.42;1666479;84;21599;-77
2022/07/01 10:54:48;;;;;;;1.20;0.88;;;;;;;28.06;39.82;100399.30;1668708;84;21600;-80
2022/07/01 10:57:29;;;;;;;1.15;0.40;;;;;;;28.11;40.03;100400.57;1708417;83;21077;-78
2022/07/01 11:00:04;;;;;;;2.98;0.33;;;;;;;28.22;40.02;100406.63;1712176;83;21095;-77
2022/07/01 11:02:35;;;;;;;1.90;0.47;;;;;;;28.31;39.67;100392.47;1712094;82;21018;-75
2022/07/01 11:05:10;;;;;;;6.47;0.80;;;;;;;28.39;39.22;100401.36;1713838;82;21039;-79
2022/07/01 11:07:45;;;;;;;1.25;0.70;;;;;;;28.39;39.21;100395.88;1712137;83;22167;-80
2022/07/01 11:10:15;;;;;;;1.00;0.42;;;;;;;28.36;39.45;100389.63;1710810;83;21517;-76
2022/07/01 11:12:44;;;;;;;2.67;0.45;;;;;;;28.33;39.95;100395.71;1714544;84;21002;-77
2022/07/01 11:15:13;;;;;;;2.95;0.80;;;;;;;28.25;39.83;100398.61;1715011;83;21101;-78
2022/07/01 11:17:47;;;;;;;2.98;0.88;;;;;;;28.21;39.10;100397.61;1673753;84;21011;-72
2022/07/01 11:20:13;;;;;;;1.37;0.53;;;;;;;28.20;39.19;100411.61;1713006;84;21003;-75
2022/07/01 11:22:40;;;;;;;2.27;0.95;;;;;;;28.14;39.07;100406.25;1713600;82;21074;-75
2022/07/01 11:25:10;;;;;;;3.92;0.50;;;;;;;28.06;39.49;100389.14;1722549;82;21490;-74
2022/07/01 11:27:38;;;;;;;1.87;0.53;;;;;;;28.07;38.93;100396.82;1721828;82;21014;-74
2022/07/01 11:30:12;;;;;;;1.67;0.42;;;;;;;28.09;39.01;100387.73;1723020;82;21558;-77
2022/07/01 11:32:46;;;;;;;0.93;0.53;;;;;;;28.12;39.26;100382.46;1722236;82;21736;-72
2022/07/01 11:41:22;;;;;;;0.45;0.40;;;;;;;28.17;39.06;100391.12;1680839;84;21079;-76
2022/07/01 11:43:51;;;;;;;1.90;0.72;;;;;;;28.17;39.24;100387.02;1678619;84;21051;-78
2022/07/01 11:46:17;;;;;;;3.35;0.60;;;;;;;28.20;39.29;100386.95;1679093;82;21157;-76